Time;durP1;ratioP1;P1;durP2;ratioP2;P2;SDS_P1;SDS_P2;PMS_P1;PMS_P2;Temp;Humidity;BMP_temperature;BMP_pressure;BME280_temperature;BME280_humidity;BME280_pressure;Samples;Min_cycle;Max_cycle;Signal;HPM_P1;HPM_P2
2022/08/31 00:04:25;;;;;;;2.10;0.22;;;14.20;99.90;;;;;;5015244;28;20061;-70
2022/08/31 00:06:51;;;;;;;0.65;0.20;;;14.20;99.90;;;;;;5015274;28;20089;-69
2022/08/31 00:09:16;;;;;;;0.50;0.30;;;14.10;99.90;;;;;;5015045;28;20065;-69
2022/08/31 00:11:42;;;;;;;0.28;0.10;;;14.20;99.90;;;;;;5014641;28;20053;-69
2022/08/31 00:14:08;;;;;;;0.68;0.32;;;14.10;99.90;;;;;;5015157;28;20049;-69
2022/08/31 00:16:37;;;;;;;1.25;0.30;;;14.10;99.90;;;;;;5014032;28;21465;-68
2022/08/31 00:19:04;;;;;;;0.17;0.17;;;14.00;99.90;;;;;;5015294;28;20045;-70
2022/08/31 00:21:30;;;;;;;0.20;0.20;;;13.90;99.90;;;;;;5015347;28;20029;-68
2022/08/31 00:23:56;;;;;;;0.20;0.20;;;13.90;99.90;;;;;;5014961;28;20042;-69
2022/08/31 00:26:22;;;;;;;0.17;0.17;;;13.90;99.90;;;;;;5015434;28;20046;-69
2022/08/31 00:28:48;;;;;;;0.13;0.13;;;13.90;99.90;;;;;;5015081;28;20029;-70
2022/08/31 00:31:14;;;;;;;7.47;0.50;;;13.90;99.90;;;;;;5014845;28;20072;-69
2022/08/31 00:33:40;;;;;;;1.92;0.32;;;13.90;99.90;;;;;;5015298;28;20041;-69
2022/08/31 00:36:09;;;;;;;0.10;0.10;;;13.80;99.90;;;;;;5014350;28;20030;-70
2022/08/31 00:38:35;;;;;;;0.40;0.15;;;13.90;99.90;;;;;;5013400;28;20439;-70
2022/08/31 00:41:00;;;;;;;0.55;0.30;;;13.90;99.90;;;;;;5014735;28;20030;-71
2022/08/31 00:43:54;;;;;;;1.42;0.52;;;13.80;99.90;;;;;;5014860;28;20033;-70
2022/08/31 00:46:29;;;;;;;0.43;0.20;;;13.80;99.90;;;;;;5012182;28;20061;-69
2022/08/31 00:49:00;;;;;;;0.47;0.30;;;13.80;99.90;;;;;;5014835;28;20026;-70
2022/08/31 00:51:27;;;;;;;0.20;0.10;;;13.80;99.90;;;;;;5014910;28;20060;-69
2022/08/31 00:53:53;;;;;;;1.10;0.45;;;13.70;99.90;;;;;;5014683;28;20037;-69
2022/08/31 00:56:19;;;;;;;0.10;0.10;;;13.70;99.90;;;;;;5013874;28;20053;-69
2022/08/31 00:58:47;;;;;;;0.40;0.10;;;13.70;99.90;;;;;;5014417;28;20395;-69
2022/08/31 01:01:13;;;;;;;0.10;0.10;;;13.70;99.90;;;;;;5014688;28;21125;-68
2022/08/31 01:03:40;;;;;;;0.57;0.30;;;13.60;99.90;;;;;;5012994;28;20019;-68
2022/08/31 01:06:06;;;;;;;0.57;0.25;;;13.60;99.90;;;;;;5013747;28;20132;-69
2022/08/31 01:08:31;;;;;;;0.20;0.20;;;13.60;99.90;;;;;;5014142;28;20134;-69
2022/08/31 01:10:59;;;;;;;0.63;0.22;;;13.60;99.90;;;;;;5013019;28;20101;-69
2022/08/31 01:13:24;;;;;;;0.77;0.45;;;13.60;99.90;;;;;;5013268;28;20026;-70
2022/08/31 01:15:57;;;;;;;0.20;0.20;;;13.50;99.90;;;;;;5013823;28;20590;-69
2022/08/31 01:18:23;;;;;;;0.20;0.20;;;13.50;99.90;;;;;;5013071;28;20037;-70
2022/08/31 01:21:27;;;;;;;0.10;0.10;;;13.50;99.90;;;;;;5013677;28;20029;-69
2022/08/31 01:23:57;;;;;;;0.17;0.15;;;13.40;99.90;;;;;;4983294;28;20430;-70
2022/08/31 01:26:26;;;;;;;1.35;0.25;;;13.40;99.90;;;;;;5013120;28;20034;-71
2022/08/31 01:28:56;;;;;;;0.43;0.30;;;13.40;99.90;;;;;;5012755;28;20121;-69
2022/08/31 01:31:27;;;;;;;0.52;0.38;;;13.40;99.90;;;;;;5013145;28;20110;-69
2022/08/31 01:33:53;;;;;;;2.55;0.45;;;13.30;99.90;;;;;;5012622;28;20034;-69
2022/08/31 01:36:19;;;;;;;2.28;0.30;;;13.40;99.90;;;;;;5014508;28;20026;-69
2022/08/31 01:38:46;;;;;;;0.43;0.25;;;13.40;99.90;;;;;;5013660;28;20019;-69
2022/08/31 01:41:12;;;;;;;0.88;0.28;;;13.40;99.90;;;;;;5013145;28;20509;-70
2022/08/31 01:43:37;;;;;;;0.63;0.40;;;13.40;99.90;;;;;;5013930;28;20030;-69
2022/08/31 01:46:08;;;;;;;0.65;0.50;;;13.40;99.90;;;;;;5013534;28;20038;-69
2022/08/31 01:48:34;;;;;;;3.08;0.45;;;13.30;99.90;;;;;;5013436;28;20781;-69
2022/08/31 01:51:00;;;;;;;0.55;0.20;;;13.30;99.90;;;;;;5013119;28;20027;-70
2022/08/31 01:53:25;;;;;;;0.35;0.28;;;13.30;99.90;;;;;;5011980;28;20034;-71
2022/08/31 01:55:51;;;;;;;0.57;0.52;;;13.30;99.90;;;;;;5013042;28;20064;-70
2022/08/31 01:58:17;;;;;;;0.63;0.30;;;13.30;99.90;;;;;;5012813;28;20034;-68
2022/08/31 02:00:42;;;;;;;0.20;0.20;;;13.30;99.90;;;;;;5012175;28;20068;-68
2022/08/31 02:03:09;;;;;;;0.68;0.35;;;13.20;99.90;;;;;;5012851;28;20050;-69
2022/08/31 02:05:35;;;;;;;0.40;0.25;;;13.20;99.90;;;;;;5013458;28;20040;-69
2022/08/31 02:08:02;;;;;;;0.65;0.30;;;13.20;99.90;;;;;;5012550;28;20026;-69
2022/08/31 02:10:29;;;;;;;1.63;0.50;;;13.20;99.90;;;;;;5012652;28;20105;-70
2022/08/31 02:12:55;;;;;;;0.20;0.20;;;13.10;99.90;;;;;;5011880;28;20103;-70
2022/08/31 02:15:20;;;;;;;0.43;0.30;;;13.10;99.90;;;;;;5013625;28;20509;-69
2022/08/31 02:17:46;;;;;;;0.52;0.35;;;13.10;99.90;;;;;;5013418;28;20018;-68
2022/08/31 02:20:13;;;;;;;0.55;0.45;;;13.10;99.90;;;;;;5012982;28;20054;-70
2022/08/31 02:22:39;;;;;;;0.30;0.20;;;13.10;99.90;;;;;;5012621;28;20109;-69
2022/08/31 02:25:06;;;;;;;0.57;0.40;;;13.10;99.90;;;;;;5012929;28;20065;-70
2022/08/31 02:27:35;;;;;;;1.40;0.80;;;13.10;99.90;;;;;;5012929;28;20026;-70
2022/08/31 02:30:04;;;;;;;0.60;0.22;;;13.00;99.90;;;;;;5012453;28;20038;-70
2022/08/31 02:32:30;;;;;;;0.50;0.30;;;13.00;99.90;;;;;;5012629;28;20037;-69
2022/08/31 02:34:55;;;;;;;1.25;0.65;;;13.00;99.90;;;;;;5012928;28;20030;-69
2022/08/31 02:37:21;;;;;;;2.92;0.35;;;13.00;99.90;;;;;;5013066;28;20582;-71
2022/08/31 02:39:47;;;;;;;1.65;0.60;;;13.00;99.90;;;;;;5012076;28;20030;-69
2022/08/31 02:42:12;;;;;;;0.38;0.20;;;13.00;99.90;;;;;;5012392;28;20617;-69
2022/08/31 02:44:38;;;;;;;0.40;0.30;;;13.00;99.90;;;;;;5012404;28;20050;-69
2022/08/31 02:47:03;;;;;;;1.30;0.40;;;12.90;99.90;;;;;;5012438;28;20082;-69
2022/08/31 02:49:33;;;;;;;0.40;0.28;;;12.90;99.90;;;;;;5012288;28;20082;-68
2022/08/31 02:51:59;;;;;;;0.20;0.20;;;12.90;99.90;;;;;;5012597;28;20034;-69
2022/08/31 02:54:24;;;;;;;0.50;0.30;;;12.90;99.90;;;;;;5012482;28;20044;-70
2022/08/31 02:56:50;;;;;;;0.45;0.28;;;12.90;99.90;;;;;;5012106;28;20423;-69
2022/08/31 02:59:16;;;;;;;0.50;0.40;;;12.90;99.90;;;;;;5010480;28;20402;-68
2022/08/31 03:01:42;;;;;;;2.58;0.60;;;12.90;99.90;;;;;;5012609;28;20025;-68
2022/08/31 03:04:07;;;;;;;0.20;0.20;;;12.80;99.90;;;;;;5011597;28;20022;-69
2022/08/31 03:06:43;;;;;;;0.88;0.40;;;12.90;99.90;;;;;;5012376;28;20051;-68
2022/08/31 03:09:09;;;;;;;0.88;0.60;;;12.90;99.90;;;;;;5011708;28;20457;-68
2022/08/31 03:11:35;;;;;;;0.60;0.60;;;12.90;99.90;;;;;;5011452;28;20064;-68
2022/08/31 03:14:00;;;;;;;4.03;0.50;;;12.90;99.90;;;;;;5012360;28;20061;-68
2022/08/31 03:16:29;;;;;;;1.30;0.50;;;12.90;99.90;;;;;;5012324;28;20061;-69
2022/08/31 03:18:55;;;;;;;7.15;0.68;;;12.80;99.90;;;;;;5011989;28;20037;-70
2022/08/31 03:21:20;;;;;;;0.88;0.45;;;12.80;99.90;;;;;;5012436;28;20034;-68
2022/08/31 03:23:46;;;;;;;0.88;0.50;;;12.80;99.90;;;;;;5011918;28;20026;-68
2022/08/31 03:26:11;;;;;;;0.95;0.43;;;12.70;99.90;;;;;;5010487;28;20065;-69
2022/08/31 03:28:37;;;;;;;0.70;0.32;;;12.70;99.90;;;;;;5011059;28;20052;-69
2022/08/31 03:31:10;;;;;;;0.45;0.40;;;12.70;99.90;;;;;;5011580;28;20041;-68
2022/08/31 03:33:35;;;;;;;0.40;0.35;;;12.70;99.90;;;;;;5011913;28;20029;-67
2022/08/31 03:36:02;;;;;;;0.93;0.50;;;;;;;;;;5012272;28;20026;-68
2022/08/31 03:38:28;;;;;;;2.50;0.32;;;;;;;;;;5011906;28;21355;-68
2022/08/31 03:40:55;;;;;;;1.60;0.45;;;;;;;;;;5012192;28;20034;-69
2022/08/31 03:43:21;;;;;;;1.35;0.52;;;;;;;;;;5010980;28;20056;-69
2022/08/31 03:45:48;;;;;;;1.20;0.57;;;;;;;;;;5011389;28;20098;-69
2022/08/31 03:48:16;;;;;;;1.45;0.70;;;;;;;;;;5011325;28;20021;-69
2022/08/31 03:50:42;;;;;;;1.50;0.80;;;;;;;;;;5011064;28;20014;-68
2022/08/31 03:53:09;;;;;;;1.55;0.68;;;;;;;;;;5011654;28;20018;-68
2022/08/31 03:55:36;;;;;;;1.92;0.52;;;;;;;;;;5011566;28;20077;-71
2022/08/31 03:58:02;;;;;;;1.40;0.43;;;;;;;;;;5011480;28;20027;-70
2022/08/31 04:00:29;;;;;;;6.65;0.73;;;;;;;;;;5009871;28;20034;-68
2022/08/31 04:02:58;;;;;;;0.73;0.35;;;;;;;;;;5011774;28;20018;-69
2022/08/31 04:05:25;;;;;;;4.70;0.70;;;;;;;;;;5010881;28;20026;-69
2022/08/31 04:07:51;;;;;;;1.25;0.80;;;;;;;;;;5011687;28;20034;-69
2022/08/31 04:10:17;;;;;;;2.97;0.80;;;;;;;;;;5008876;28;20026;-69
2022/08/31 04:12:43;;;;;;;1.58;0.50;;;;;;;;;;5011176;28;20058;-69
2022/08/31 04:15:10;;;;;;;0.77;0.50;;;;;;;;;;5011736;28;20053;-68
2022/08/31 04:17:36;;;;;;;0.38;0.30;;;;;;;;;;5011244;28;20023;-69
2022/08/31 04:20:02;;;;;;;1.00;0.52;;;;;;;;;;5011196;28;20055;-69
2022/08/31 04:22:28;;;;;;;0.60;0.50;;;;;;;;;;5012593;28;20027;-68
2022/08/31 04:24:55;;;;;;;0.63;0.57;;;;;;;;;;5014260;28;20046;-70
2022/08/31 04:27:21;;;;;;;1.40;0.52;;;;;;;;;;5014923;28;20306;-68
2022/08/31 04:29:48;;;;;;;2.35;0.68;;;;;;;;;;5015023;28;20086;-69
2022/08/31 04:32:14;;;;;;;3.17;0.52;;;;;;;;;;5015185;28;20019;-69
2022/08/31 04:34:40;;;;;;;0.60;0.57;;;;;;;;;;5014534;28;20032;-68
2022/08/31 04:37:09;;;;;;;0.55;0.38;;;;;;;;;;5015075;28;20467;-68
2022/08/31 04:39:35;;;;;;;0.70;0.70;;;;;;;;;;5014406;28;20010;-69
2022/08/31 04:42:01;;;;;;;2.08;0.85;;;;;;;;;;5014877;28;20022;-69
2022/08/31 04:44:27;;;;;;;0.82;0.73;;;;;;;;;;5015190;28;20070;-68
2022/08/31 04:46:54;;;;;;;2.42;0.70;;;;;;;;;;5014631;28;20026;-69
2022/08/31 04:49:20;;;;;;;0.50;0.50;;;;;;;;;;5014812;28;20526;-69
2022/08/31 04:51:46;;;;;;;2.20;0.98;;;;;;;;;;5014787;28;20112;-69
2022/08/31 04:54:12;;;;;;;9.90;0.93;;;;;;;;;;5014308;28;20030;-69
2022/08/31 04:56:40;;;;;;;1.15;0.60;;;;;;;;;;5014318;28;20105;-70
2022/08/31 04:59:08;;;;;;;0.70;0.50;;;;;;;;;;5012955;28;20061;-69
2022/08/31 05:01:36;;;;;;;1.13;0.77;;;;;;;;;;5006459;28;20030;-68
2022/08/31 05:04:03;;;;;;;6.00;1.08;;;;;;;;;;5010553;28;20034;-68
2022/08/31 05:06:30;;;;;;;1.95;0.90;;;;;;;;;;5013989;28;20042;-69
2022/08/31 05:08:58;;;;;;;1.50;0.82;;;;;;;;;;5014109;28;20024;-69
2022/08/31 05:11:25;;;;;;;1.75;0.88;;;;;;;;;;5012391;28;20485;-70
2022/08/31 05:13:51;;;;;;;1.27;1.00;;;;;;;;;;5014191;28;20477;-69
2022/08/31 05:16:18;;;;;;;1.38;0.82;;;;;;;;;;5013829;28;20026;-68
2022/08/31 05:18:45;;;;;;;1.17;0.82;;;;;;;;;;5011261;28;20089;-69
2022/08/31 05:21:12;;;;;;;1.55;0.63;;;;;;;;;;5006643;28;20026;-70
2022/08/31 05:23:38;;;;;;;2.33;0.98;;;;;;;;;;5013238;28;20026;-69
2022/08/31 05:26:05;;;;;;;1.70;0.55;;;;;;;;;;5012478;28;20034;-69
2022/08/31 05:28:32;;;;;;;1.05;0.82;;;;;;;;;;5012548;28;20033;-69
2022/08/31 05:30:59;;;;;;;1.33;0.82;;;;;;;;;;5012544;28;20090;-69
2022/08/31 05:33:25;;;;;;;1.38;0.70;;;;;;;;;;5012557;28;20018;-69
2022/08/31 05:35:51;;;;;;;1.40;0.77;;;;;;;;;;5012225;28;20030;-70
2022/08/31 05:38:17;;;;;;;11.27;1.27;;;;;;;;;;5011757;28;20094;-70
2022/08/31 05:40:43;;;;;;;1.70;0.88;;;;;;;;;;5013142;28;20525;-69
2022/08/31 05:43:09;;;;;;;3.05;1.20;;;;;;;;;;5011804;28;20037;-69
2022/08/31 05:45:35;;;;;;;1.05;0.70;;;;;;;;;;5014063;28;20046;-68
2022/08/31 05:48:00;;;;;;;2.08;1.00;;;;;;;;;;5013209;28;20082;-70
2022/08/31 05:50:27;;;;;;;2.22;1.08;;;;;;;;;;5013353;28;20025;-70
2022/08/31 05:52:53;;;;;;;1.92;0.88;;;;;;;;;;5011945;28;20113;-69
2022/08/31 05:55:19;;;;;;;1.67;0.93;;;;;;;;;;5012011;28;20038;-69
2022/08/31 05:57:46;;;;;;;1.70;1.08;;;;;;;;;;5013278;28;20029;-69
2022/08/31 06:00:12;;;;;;;1.05;0.80;;;;;;;;;;5013843;28;20029;-69
2022/08/31 06:02:38;;;;;;;3.13;0.95;;;;;;;;;;5013427;28;20015;-69
2022/08/31 06:05:05;;;;;;;5.60;1.08;;;;;;;;;;5012861;28;20030;-69
2022/08/31 06:07:31;;;;;;;1.17;0.80;;;;;;;;;;5010621;28;20042;-69
2022/08/31 06:09:57;;;;;;;1.98;1.00;;;;;;;;;;5011891;28;20077;-70
2022/08/31 06:12:25;;;;;;;1.30;0.80;;;;;;;;;;5013122;28;20482;-69
2022/08/31 06:14:52;;;;;;;0.68;0.65;;;;;;;;;;5013435;28;20050;-69
2022/08/31 06:17:18;;;;;;;1.65;1.10;;;;;;;;;;5012867;28;20019;-69
2022/08/31 06:19:44;;;;;;;1.02;0.55;;;;;;;;;;5011982;28;20140;-69
2022/08/31 06:22:10;;;;;;;6.75;1.08;;;;;;;;;;5013252;28;20109;-70
2022/08/31 06:24:37;;;;;;;0.68;0.63;;;;;;;;;;5012566;28;20069;-71
2022/08/31 06:27:04;;;;;;;1.48;0.77;;;;;;;;;;5011321;28;20030;-69
2022/08/31 06:29:31;;;;;;;0.47;0.45;;;;;;;;;;5012175;28;20010;-69
2022/08/31 06:31:59;;;;;;;1.25;0.60;;;;;;;;;;5012729;28;20026;-70
2022/08/31 06:34:27;;;;;;;2.20;1.20;;;;;;;;;;5013687;28;20655;-70
2022/08/31 06:36:54;;;;;;;4.43;0.93;;;;;;;;;;5013168;28;20026;-70
2022/08/31 06:39:20;;;;;;;2.63;0.85;;;;;;;;;;5011277;28;20026;-68
2022/08/31 06:41:47;;;;;;;0.95;0.50;;;;;;;;;;5011736;28;20021;-70
2022/08/31 06:44:13;;;;;;;4.78;0.88;;;;;;;;;;5011866;28;20133;-69
2022/08/31 06:46:40;;;;;;;9.95;1.20;;;;;;;;;;5011858;28;20026;-71
2022/08/31 06:49:16;;;;;;;0.98;0.80;;;;;;;;;;5010599;28;20033;-71
2022/08/31 06:51:42;;;;;;;4.30;1.13;;;;;;;;;;5011353;28;20018;-70
2022/08/31 06:54:10;;;;;;;0.63;0.57;;;;;;;;;;5011879;28;20082;-70
2022/08/31 06:56:36;;;;;;;0.45;0.35;;;;;;;;;;5010442;28;20021;-69
2022/08/31 06:59:07;;;;;;;2.72;1.02;;;;;;;;;;5010273;28;20481;-70
2022/08/31 07:01:35;;;;;;;0.65;0.40;;;;;;;;;;5009865;28;20022;-70
2022/08/31 07:04:03;;;;;;;1.25;0.57;;;;;;;;;;5009405;28;20026;-68
2022/08/31 07:06:32;;;;;;;1.00;0.70;;;12.70;99.90;;;;;;5011783;28;20479;-71
2022/08/31 07:09:02;;;;;;;0.90;0.63;;;14.50;99.90;;;;;;5008614;28;20030;-70
2022/08/31 07:11:43;;;;;;;0.45;0.45;;;14.50;99.90;;;;;;5011090;28;20049;-69
2022/08/31 07:14:12;;;;;;;1.40;0.70;;;14.70;99.90;;;;;;5011802;28;20084;-70
2022/08/31 07:16:38;;;;;;;0.88;0.60;;;14.80;99.90;;;;;;5011543;28;20058;-70
2022/08/31 07:19:07;;;;;;;0.90;0.52;;;14.90;99.90;;;;;;5011600;28;20042;-69
2022/08/31 07:21:38;;;;;;;0.73;0.50;;;15.00;99.90;;;;;;5010857;28;20030;-69
2022/08/31 07:24:04;;;;;;;0.45;0.45;;;15.10;99.90;;;;;;5012221;28;20034;-69
2022/08/31 07:26:41;;;;;;;0.80;0.40;;;15.20;99.90;;;;;;5011765;28;20034;-69
2022/08/31 07:29:08;;;;;;;0.88;0.38;;;15.40;99.90;;;;;;5009638;28;20706;-70
2022/08/31 07:31:47;;;;;;;1.30;0.40;;;15.50;99.90;;;;;;5009018;28;20031;-70
2022/08/31 07:34:14;;;;;;;0.57;0.20;;;15.70;99.90;;;;;;5010704;28;20085;-68
2022/08/31 07:42:16;;;;;;;2.20;0.57;;;15.90;99.90;;;;;;5011932;28;20061;-70
2022/08/31 07:44:41;;;;;;;1.00;0.38;;;16.10;99.90;;;;;;5012113;28;20480;-70
2022/08/31 07:47:11;;;;;;;0.43;0.30;;;16.20;99.90;;;;;;5010225;28;20035;-69
2022/08/31 07:49:43;;;;;;;0.65;0.47;;;16.30;99.90;;;;;;5010284;28;20094;-69
2022/08/31 07:52:10;;;;;;;2.50;0.77;;;16.50;99.90;;;;;;5012011;28;20030;-69
2022/08/31 07:54:36;;;;;;;0.20;0.20;;;16.70;99.90;;;;;;5011671;28;20019;-70
2022/08/31 07:57:05;;;;;;;1.30;0.63;;;16.80;99.90;;;;;;5008510;28;20026;-70
2022/08/31 07:59:32;;;;;;;0.38;0.30;;;16.80;99.90;;;;;;5015018;28;20030;-70
2022/08/31 08:02:02;;;;;;;2.28;0.65;;;16.90;99.90;;;;;;5013088;28;20040;-70
2022/08/31 08:04:29;;;;;;;0.22;0.22;;;17.00;99.90;;;;;;5011187;28;20034;-69
2022/08/31 08:06:57;;;;;;;0.52;0.17;;;17.10;99.90;;;;;;5011962;28;20034;-70
2022/08/31 08:09:24;;;;;;;0.40;0.30;;;17.20;99.90;;;;;;5011260;28;20097;-69
2022/08/31 08:11:54;;;;;;;0.28;0.20;;;17.30;99.90;;;;;;5013148;28;20072;-68
2022/08/31 08:14:21;;;;;;;0.30;0.20;;;17.40;99.90;;;;;;5014775;28;20022;-69
2022/08/31 08:16:46;;;;;;;1.75;0.17;;;17.50;99.90;;;;;;5015193;28;20022;-69
2022/08/31 08:19:13;;;;;;;0.68;0.40;;;17.60;99.90;;;;;;5013115;28;20026;-69
2022/08/31 08:21:38;;;;;;;0.17;0.10;;;17.80;99.90;;;;;;5014314;28;20033;-70
2022/08/31 08:24:04;;;;;;;0.35;0.35;;;18.00;99.90;;;;;;5010664;28;20056;-69
2022/08/31 08:26:30;;;;;;;0.25;0.15;;;18.10;99.90;;;;;;5012831;28;20053;-69
2022/08/31 08:28:55;;;;;;;0.82;0.35;;;18.20;99.90;;;;;;5015558;28;20029;-71
2022/08/31 08:31:21;;;;;;;0.30;0.10;;;18.20;99.90;;;;;;5008502;28;20075;-73
2022/08/31 08:33:49;;;;;;;0.20;0.20;;;18.40;99.90;;;;;;5006514;28;20042;-70
2022/08/31 08:36:18;;;;;;;0.60;0.40;;;18.50;99.90;;;;;;5009792;28;20034;-68
2022/08/31 08:38:46;;;;;;;1.10;0.30;;;18.60;99.90;;;;;;5013329;28;20034;-68
2022/08/31 08:41:18;;;;;;;1.13;0.70;;;18.70;99.90;;;;;;5011514;28;20049;-68
2022/08/31 08:43:48;;;;;;;0.28;0.20;;;18.80;99.90;;;;;;5013925;28;20104;-71
2022/08/31 08:46:16;;;;;;;0.75;0.28;;;18.90;99.90;;;;;;5014228;28;20045;-70
2022/08/31 08:48:43;;;;;;;0.22;0.20;;;19.00;99.90;;;;;;5011925;28;20031;-71
2022/08/31 08:51:15;;;;;;;0.40;0.20;;;19.10;99.90;;;;;;5011087;28;20035;-69
2022/08/31 08:53:44;;;;;;;0.17;0.10;;;19.20;99.90;;;;;;5009226;28;20026;-71
2022/08/31 08:56:11;;;;;;;2.70;0.30;;;19.30;99.90;;;;;;5009461;28;20054;-71
2022/08/31 08:58:41;;;;;;;0.73;0.40;;;19.30;99.90;;;;;;5011323;28;20018;-74
2022/08/31 09:01:10;;;;;;;1.65;0.35;;;19.40;99.90;;;;;;5011527;28;20036;-70
2022/08/31 09:04:04;;;;;;;0.20;0.20;;;19.40;99.90;;;;;;5011909;28;20033;-70
2022/08/31 09:06:37;;;;;;;0.30;0.20;;;19.50;99.90;;;;;;5014335;28;20045;-69
2022/08/31 09:09:27;;;;;;;0.50;0.20;;;19.70;99.90;;;;;;5008881;28;20038;-68
2022/08/31 09:11:57;;;;;;;1.48;0.40;;;19.80;99.90;;;;;;5009545;28;20060;-69
2022/08/31 09:14:46;;;;;;;0.40;0.17;;;20.00;99.90;;;;;;5013138;28;20030;-70
2022/08/31 09:17:41;;;;;;;0.82;0.32;;;20.00;99.90;;;;;;5013568;28;20062;-70
2022/08/31 09:20:11;;;;;;;2.92;0.40;;;20.20;99.90;;;;;;5008423;28;20030;-72
2022/08/31 09:22:48;;;;;;;1.85;0.25;;;20.30;99.90;;;;;;5013073;28;20042;-70
2022/08/31 09:25:27;;;;;;;1.73;0.40;;;20.50;99.90;;;;;;5014185;28;20171;-68
2022/08/31 09:27:56;;;;;;;0.57;0.55;;;20.60;99.90;;;;;;5012821;28;20096;-70
2022/08/31 09:30:53;;;;;;;0.40;0.22;;;20.70;99.90;;;;;;5011899;28;20029;-71
2022/08/31 09:33:33;;;;;;;0.45;0.30;;;20.80;99.90;;;;;;5014084;28;20038;-69
2022/08/31 09:36:16;;;;;;;0.30;0.20;;;20.90;99.90;;;;;;5014130;28;20034;-68
2022/08/31 09:38:45;;;;;;;0.35;0.20;;;21.00;99.90;;;;;;5013577;28;20092;-68
2022/08/31 09:41:40;;;;;;;0.85;0.40;;;21.00;99.90;;;;;;5010556;28;20022;-70
2022/08/31 09:44:38;;;;;;;0.52;0.30;;;20.80;99.90;;;;;;5000339;28;21302;-70
2022/08/31 09:47:25;;;;;;;0.40;0.30;;;20.90;99.90;;;;;;5006825;28;20057;-68
2022/08/31 09:49:56;;;;;;;0.25;0.17;;;21.00;99.90;;;;;;5011060;28;20037;-70
2022/08/31 09:55:26;;;;;;;0.95;0.45;;;21.40;99.90;;;;;;5011452;28;20184;-70
2022/08/31 09:57:53;;;;;;;0.60;0.45;;;21.60;99.90;;;;;;5012224;28;20521;-74
2022/08/31 10:00:30;;;;;;;0.45;0.32;;;21.80;99.90;;;;;;5013455;28;20026;-69
2022/08/31 10:03:07;;;;;;;0.30;0.28;;;21.90;99.90;;;;;;5013180;28;20019;-69
2022/08/31 10:05:43;;;;;;;2.08;0.50;;;21.90;99.90;;;;;;5013560;28;20057;-68
2022/08/31 10:08:41;;;;;;;0.30;0.25;;;22.00;99.90;;;;;;5007907;28;20034;-70
2022/08/31 10:11:14;;;;;;;0.63;0.22;;;21.90;99.90;;;;;;5005345;28;20501;-69
2022/08/31 10:13:55;;;;;;;1.45;0.40;;;22.00;99.90;;;;;;5011074;28;20022;-75
2022/08/31 10:16:30;;;;;;;0.77;0.30;;;22.10;99.90;;;;;;5000233;28;20563;-70
2022/08/31 10:19:02;;;;;;;0.35;0.20;;;22.10;99.90;;;;;;5011504;28;20034;-75
2022/08/31 10:21:52;;;;;;;0.43;0.30;;;22.20;99.90;;;;;;5009657;28;20038;-70
2022/08/31 10:24:32;;;;;;;8.20;0.30;;;22.20;99.90;;;;;;5008759;28;20502;-71
2022/08/31 10:27:19;;;;;;;8.77;0.43;;;22.30;99.90;;;;;;5009505;28;20060;-72
2022/08/31 10:30:05;;;;;;;0.25;0.20;;;22.40;99.90;;;;;;5010335;28;20423;-69
2022/08/31 10:32:53;;;;;;;0.20;0.20;;;22.40;99.90;;;;;;5012386;28;20097;-69
2022/08/31 10:35:25;;;;;;;0.50;0.30;;;22.40;99.90;;;;;;5011730;28;20398;-69
2022/08/31 10:38:29;;;;;;;0.32;0.20;;;22.50;99.90;;;;;;5010865;28;22734;-71
2022/08/31 10:41:22;;;;;;;0.85;0.13;;;22.60;99.90;;;;;;5009182;28;20144;-70
2022/08/31 10:44:16;;;;;;;0.30;0.20;;;22.70;99.90;;;;;;5008098;28;20042;-69
2022/08/31 10:46:42;;;;;;;0.63;0.50;;;22.70;99.90;;;;;;5010388;28;21392;-72
2022/08/31 10:49:10;;;;;;;0.45;0.43;;;22.70;99.90;;;;;;4997097;28;20029;-72
2022/08/31 10:51:47;;;;;;;1.08;0.50;;;22.80;99.90;;;;;;5011376;28;20018;-70
2022/08/31 10:54:48;;;;;;;2.42;0.68;;;22.90;99.90;;;;;;5011817;28;20022;-69
2022/08/31 10:57:53;;;;;;;0.88;0.38;;;23.00;99.90;;;;;;5010700;28;20026;-70
2022/08/31 11:00:44;;;;;;;1.33;0.50;;;23.10;99.90;;;;;;5012446;28;20398;-70
2022/08/31 11:03:12;;;;;;;0.52;0.45;;;23.20;99.90;;;;;;5012250;28;20034;-70
2022/08/31 11:05:46;;;;;;;0.40;0.30;;;23.30;99.90;;;;;;5011392;28;20030;-71
2022/08/31 11:08:24;;;;;;;0.77;0.30;;;23.40;99.90;;;;;;5012753;28;20026;-71
2022/08/31 11:10:53;;;;;;;0.50;0.30;;;23.60;99.90;;;;;;5011886;28;20108;-70
2022/08/31 11:13:24;;;;;;;2.00;0.73;;;23.70;99.90;;;;;;5012725;28;20072;-70
2022/08/31 11:16:09;;;;;;;0.68;0.47;;;23.80;99.90;;;;;;5012363;28;20125;-71
2022/08/31 11:18:44;;;;;;;0.30;0.30;;;24.00;99.90;;;;;;5010560;28;20522;-72
2022/08/31 11:21:34;;;;;;;2.75;0.50;;;24.10;99.90;;;;;;5011783;28;20105;-70
2022/08/31 11:24:05;;;;;;;0.35;0.20;;;24.10;99.90;;;;;;5011034;28;20030;-71
2022/08/31 11:26:34;;;;;;;3.28;0.45;;;24.10;99.90;;;;;;5012002;28;20121;-72
2022/08/31 11:29:08;;;;;;;0.25;0.25;;;24.20;99.90;;;;;;5011814;28;20026;-70
2022/08/31 11:31:35;;;;;;;0.75;0.40;;;24.30;99.90;;;;;;5012044;28;20033;-71
2022/08/31 11:34:33;;;;;;;0.80;0.13;;;24.30;99.90;;;;;;5012027;28;20026;-71
2022/08/31 11:37:06;;;;;;;1.50;0.80;;;24.30;99.90;;;;;;5011948;28;20038;-70
2022/08/31 11:39:39;;;;;;;0.88;0.32;;;24.40;99.90;;;;;;5012134;28;20038;-71
2022/08/31 11:42:19;;;;;;;1.77;0.43;;;24.50;99.90;;;;;;5011889;28;20076;-71
2022/08/31 11:44:58;;;;;;;0.60;0.35;;;24.50;99.90;;;;;;5010410;28;20077;-69
2022/08/31 11:47:26;;;;;;;0.20;0.20;;;24.70;99.90;;;;;;5011978;28;20065;-70
2022/08/31 11:49:54;;;;;;;0.10;0.10;;;24.80;99.90;;;;;;5012108;28;20453;-69
2022/08/31 11:52:20;;;;;;;1.10;0.40;;;25.00;99.90;;;;;;5011578;28;20022;-70
2022/08/31 11:54:47;;;;;;;1.23;0.40;;;25.00;99.90;;;;;;5011749;28;20031;-70
2022/08/31 11:57:19;;;;;;;0.13;0.10;;;25.00;99.90;;;;;;5011515;28;20037;-73
2022/08/31 11:59:47;;;;;;;0.65;0.43;;;25.10;99.90;;;;;;5011813;28;20026;-70
2022/08/31 12:02:18;;;;;;;1.33;0.40;;;25.20;99.90;;;;;;5010316;28;20030;-70
2022/08/31 12:04:56;;;;;;;0.40;0.30;;;25.20;99.90;;;;;;5011831;28;20132;-72
2022/08/31 12:07:42;;;;;;;0.52;0.17;;;25.30;99.90;;;;;;5011824;28;20037;-71
2022/08/31 12:10:35;;;;;;;0.20;0.10;;;25.40;99.90;;;;;;5009716;28;20421;-72
2022/08/31 12:13:26;;;;;;;1.13;0.30;;;25.50;99.90;;;;;;5009631;28;20049;-70
2022/08/31 12:16:19;;;;;;;0.45;0.20;;;25.60;99.90;;;;;;5009623;28;20049;-70
2022/08/31 12:19:17;;;;;;;0.93;0.30;;;25.70;99.90;;;;;;5009842;28;20093;-70
2022/08/31 12:25:33;;;;;;;0.40;0.13;;;26.10;99.90;;;;;;5011974;28;20129;-73
2022/08/31 12:28:08;;;;;;;0.38;0.20;;;26.30;99.90;;;;;;5004064;28;20770;-71
2022/08/31 12:30:34;;;;;;;0.20;0.20;;;26.50;99.90;;;;;;5011711;28;20562;-73
2022/08/31 12:33:14;;;;;;;0.25;0.20;;;26.70;99.90;;;;;;5011918;28;20018;-72
2022/08/31 12:35:39;;;;;;;0.13;0.13;;;26.80;99.90;;;;;;5010476;28;20036;-73
2022/08/31 12:38:17;;;;;;;0.85;0.32;;;27.00;99.90;;;;;;5011352;28;20030;-71
2022/08/31 12:40:47;;;;;;;2.50;0.22;;;27.20;99.90;;;;;;5010890;28;20022;-72
2022/08/31 12:43:21;;;;;;;0.15;0.10;;;27.40;99.90;;;;;;5009818;28;20030;-70
2022/08/31 12:46:07;;;;;;;0.38;0.25;;;27.40;99.90;;;;;;5015381;28;20639;-71
2022/08/31 12:48:48;;;;;;;1.60;0.30;;;27.50;99.90;;;;;;5014248;28;20161;-71
2022/08/31 12:51:34;;;;;;;0.50;0.20;;;27.60;98.50;;;;;;5014079;28;20112;-77
2022/08/31 12:54:37;;;;;;;0.17;0.10;;;27.70;97.50;;;;;;5013903;28;20034;-74
2022/08/31 12:57:11;;;;;;;0.10;0.10;;;27.80;98.20;;;;;;5014351;28;20069;-72
2022/08/31 12:59:36;;;;;;;;;;;27.80;99.90;;;;;;5015133;28;20018;-72
2022/08/31 13:02:02;;;;;;;0.40;0.28;;;27.80;95.70;;;;;;5014841;28;19921;-71
2022/08/31 13:04:28;;;;;;;0.20;0.10;;;27.80;99.00;;;;;;5014491;28;20033;-73
2022/08/31 13:06:53;;;;;;;0.32;0.20;;;27.70;98.60;;;;;;5015012;28;20029;-74
2022/08/31 13:09:30;;;;;;;0.08;0.08;;;27.60;97.80;;;;;;5013715;28;20030;-72
2022/08/31 13:11:59;;;;;;;0.20;0.20;;;27.50;96.60;;;;;;5014577;28;20469;-72
2022/08/31 13:14:37;;;;;;;0.40;0.17;;;27.60;97.90;;;;;;5015035;28;20022;-70
2022/08/31 13:17:11;;;;;;;0.00;0.00;;;27.70;97.30;;;;;;5012552;28;20041;-72
2022/08/31 13:19:38;;;;;;;0.00;0.00;;;27.90;97.70;;;;;;5014167;28;20030;-70
2022/08/31 13:22:15;;;;;;;0.35;0.20;;;27.90;97.50;;;;;;5013741;28;20029;-75
2022/08/31 13:24:44;;;;;;;0.47;0.20;;;28.00;96.90;;;;;;5013480;28;20041;-74
2022/08/31 13:27:19;;;;;;;0.30;0.20;;;28.10;97.50;;;;;;5014280;28;20022;-72
2022/08/31 13:29:46;;;;;;;0.60;0.20;;;28.10;97.10;;;;;;5014149;28;20098;-72
2022/08/31 13:32:30;;;;;;;12.07;0.60;;;28.10;97.50;;;;;;5011203;28;20033;-70
2022/08/31 13:35:02;;;;;;;0.10;0.10;;;28.20;96.60;;;;;;5014089;28;20029;-69
2022/08/31 13:37:36;;;;;;;3.55;0.40;;;28.20;96.30;;;;;;5014127;28;20034;-71
2022/08/31 13:40:08;;;;;;;0.10;0.10;;;28.00;96.30;;;;;;5013393;28;20019;-70
2022/08/31 13:42:40;;;;;;;0.85;0.20;;;28.00;95.60;;;;;;5013444;28;20023;-70
2022/08/31 13:45:24;;;;;;;0.00;0.00;;;28.00;95.90;;;;;;5012320;28;20048;-69
2022/08/31 13:47:54;;;;;;;0.10;0.10;;;28.00;93.70;;;;;;5012331;28;20029;-72
2022/08/31 13:50:22;;;;;;;0.20;0.20;;;28.00;95.40;;;;;;5013810;28;20026;-69